Time;durP1;ratioP1;P1;durP2;ratioP2;P2;SDS_P1;SDS_P2;PMS_P1;PMS_P2;Temp;Humidity;BMP_temperature;BMP_pressure;BME280_temperature;BME280_humidity;BME280_pressure;Samples;Min_cycle;Max_cycle;Signal;HPM_P1;HPM_P2
2022/06/04 00:02:22;;;;;;;13.80;7.80;;;;;;;16.62;50.49;99061.97;106153;1274;24370;-74
2022/06/04 00:04:52;;;;;;;16.50;8.10;;;;;;;16.58;50.51;99055.38;106158;1274;22623;-79
2022/06/04 00:07:50;;;;;;;15.50;7.40;;;;;;;16.54;50.65;99051.14;105930;1274;22534;-80
2022/06/04 00:16:18;;;;;;;14.40;8.20;;;;;;;16.34;51.00;99040.23;105926;1274;24288;-80
2022/06/04 00:18:45;;;;;;;16.40;7.90;;;;;;;16.31;51.04;99030.52;105973;1275;24716;-77
2022/06/04 00:21:12;;;;;;;13.80;7.30;;;;;;;16.29;51.11;99026.73;105793;1278;23901;-76
2022/06/04 00:24:13;;;;;;;13.00;7.20;;;;;;;16.27;51.14;99025.14;105956;1274;22658;-78
2022/06/04 00:27:03;;;;;;;13.30;7.50;;;;;;;16.23;51.38;99021.95;105863;1277;25274;-74
2022/06/04 00:29:33;;;;;;;12.80;7.40;;;;;;;16.21;51.47;99014.52;105912;1274;22527;-79
2022/06/04 00:32:04;;;;;;;13.10;6.60;;;;;;;16.23;51.58;99014.38;105914;1274;22702;-78
2022/06/04 00:34:31;;;;;;;13.90;6.50;;;;;;;16.25;51.52;99013.67;105842;1275;24712;-77
2022/06/04 00:37:06;;;;;;;14.20;6.80;;;;;;;16.26;51.71;99017.71;105924;1275;25501;-74
2022/06/04 00:39:36;;;;;;;14.70;6.30;;;;;;;16.26;51.81;99016.98;105852;1274;23954;-76
2022/06/04 00:42:12;;;;;;;15.00;7.20;;;;;;;16.26;51.77;99014.59;105835;1277;22724;-78
2022/06/04 00:45:41;;;;;;;10.60;5.80;;;;;;;16.30;51.97;99014.41;105923;1275;25370;-74
2022/06/04 00:48:11;;;;;;;15.20;7.10;;;;;;;16.39;52.01;99014.73;105884;1274;22621;-78
2022/06/04 00:50:40;;;;;;;11.70;7.00;;;;;;;16.44;52.12;99016.63;105779;1274;24245;-77
2022/06/04 00:53:12;;;;;;;12.60;7.90;;;;;;;16.46;52.03;99012.05;105956;1274;22537;-78
2022/06/04 00:56:03;;;;;;;14.50;7.50;;;;;;;16.46;52.11;99013.00;105801;1277;22596;-73
2022/06/04 00:58:44;;;;;;;13.20;7.30;;;;;;;16.41;52.18;99011.77;105942;1274;22793;-77
2022/06/04 01:02:14;;;;;;;11.80;6.80;;;;;;;16.36;52.16;99012.70;105887;1275;25630;-79
2022/06/04 01:04:52;;;;;;;12.20;6.60;;;;;;;16.31;52.39;99013.59;105533;1283;24253;-77
2022/06/04 01:07:57;;;;;;;12.40;6.50;;;;;;;16.34;52.47;99022.48;105302;1284;23909;-76
2022/06/04 01:10:37;;;;;;;11.80;6.00;;;;;;;16.40;52.49;99020.23;104924;1285;22617;-75
2022/06/04 01:13:51;;;;;;;12.80;6.20;;;;;;;16.48;52.63;99013.73;105330;1284;22551;-78
2022/06/04 01:17:08;;;;;;;;;;;;;;;;;;;;;
2022/06/04 01:19:58;;;;;;;12.20;6.60;;;;;;;16.64;52.74;99005.67;105479;1284;22614;-77
2022/06/04 01:23:16;;;;;;;11.20;7.00;;;;;;;16.66;52.68;99002.77;105324;1284;24388;-81
2022/06/04 01:26:24;;;;;;;14.00;7.40;;;;;;;16.62;52.73;99002.70;105469;1284;22670;-80
2022/06/04 01:29:32;;;;;;;13.60;7.30;;;;;;;16.58;52.75;99005.16;104480;1290;24312;-75
2022/06/04 01:32:20;;;;;;;13.30;7.70;;;;;;;16.56;52.84;99004.14;104186;1291;22595;-77
2022/06/04 01:35:04;;;;;;;17.20;8.70;;;;;;;16.58;52.93;99011.56;104279;1291;23980;-78
2022/06/04 01:37:43;;;;;;;15.00;8.40;;;;;;;16.59;53.05;99014.67;104387;1291;25269;-75
2022/06/04 01:43:09;;;;;;;13.60;8.40;;;;;;;16.55;53.22;99018.11;105309;1284;22552;-80
2022/06/04 01:45:44;;;;;;;12.90;8.10;;;;;;;16.56;53.33;99010.61;104928;1284;25361;-76
2022/06/04 01:49:15;;;;;;;14.70;7.90;;;;;;;16.60;53.33;99003.58;105333;1284;22650;-74
2022/06/04 01:51:22;;;;;;;13.30;8.10;;;;;;;16.65;53.36;98998.76;104997;1284;22653;-79
2022/06/04 01:54:19;;;;;;;14.90;8.80;;;;;;;16.72;53.41;98997.42;105347;1284;24420;-80
2022/06/04 01:56:50;;;;;;;13.30;8.00;;;;;;;16.77;53.51;98995.61;105537;1284;22547;-78
2022/06/04 01:59:57;;;;;;;;;;;;;;;;;;;;;
2022/06/04 02:03:00;;;;;;;15.70;8.80;;;;;;;16.81;53.60;98998.16;105500;1284;25242;-77
2022/06/04 02:05:57;;;;;;;15.90;9.30;;;;;;;16.79;53.65;98994.35;105838;1275;25398;-75
2022/06/04 02:08:32;;;;;;;14.00;8.90;;;;;;;16.76;53.72;98987.11;105926;1274;25304;-74
2022/06/04 02:11:46;;;;;;;16.70;9.40;;;;;;;16.75;53.69;98990.47;105913;1275;22624;-80
2022/06/04 02:14:22;;;;;;;16.50;10.30;;;;;;;16.70;53.76;98990.91;105841;1275;24298;-75
2022/06/04 02:17:13;;;;;;;15.80;10.30;;;;;;;16.65;53.77;98989.23;105922;1275;22831;-76
2022/06/04 02:20:02;;;;;;;15.20;10.00;;;;;;;16.60;53.80;98982.71;105857;1274;24294;-79
2022/06/04 02:23:13;;;;;;;16.50;9.60;;;;;;;16.58;53.87;98979.89;105844;1273;23157;-79
2022/06/04 02:25:48;;;;;;;16.20;9.90;;;;;;;16.50;53.96;98970.39;106095;1274;22584;-77
2022/06/04 02:28:27;;;;;;;14.00;8.40;;;;;;;16.49;54.17;98974.41;105837;1275;22543;-80
2022/06/04 02:31:51;;;;;;;15.00;8.70;;;;;;;16.57;54.23;98977.14;105902;1274;22548;-77
2022/06/04 02:34:49;;;;;;;;;;;;;;;;;;;;;
2022/06/04 02:37:34;;;;;;;15.70;8.10;;;;;;;16.72;54.33;98966.42;105950;1274;22537;-77
2022/06/04 02:40:27;;;;;;;14.00;8.00;;;;;;;16.75;54.32;98963.48;105868;1274;24224;-78
2022/06/04 02:46:59;;;;;;;16.90;9.70;;;;;;;16.72;54.45;98961.06;105908;1274;22900;-76
2022/06/04 02:50:05;;;;;;;15.60;8.90;;;;;;;16.71;54.48;98963.15;105888;1274;24284;-79
2022/06/04 02:52:37;;;;;;;15.20;9.00;;;;;;;16.66;54.58;98965.02;106468;1273;22556;-77
2022/06/04 02:55:45;;;;;;;16.10;9.40;;;;;;;16.62;54.57;98963.84;106019;1273;22618;-78
2022/06/04 02:58:18;;;;;;;16.40;9.90;;;;;;;16.59;54.81;98965.73;105839;1275;22774;-81
2022/06/04 03:01:37;;;;;;;16.10;9.70;;;;;;;16.58;54.91;98967.45;105923;1274;25414;-74
2022/06/04 03:04:08;;;;;;;17.10;10.00;;;;;;;16.56;54.91;98975.05;106120;1273;22528;-78
2022/06/04 03:07:16;;;;;;;16.10;10.00;;;;;;;16.53;55.03;98975.71;105938;1274;24279;-78
2022/06/04 03:10:07;;;;;;;16.60;9.00;;;;;;;16.46;55.23;98973.08;105958;1274;22825;-75
2022/06/04 03:12:43;;;;;;;15.20;8.20;;;;;;;16.51;55.29;98970.54;105950;1273;25434;-78
2022/06/04 03:15:11;;;;;;;17.90;9.90;;;;;;;16.57;55.29;98978.16;106102;1273;25348;-73
2022/06/04 03:17:59;;;;;;;18.10;11.40;;;;;;;16.57;55.45;98974.79;106105;1273;22692;-81
2022/06/04 03:20:27;;;;;;;19.90;11.20;;;;;;;16.50;55.45;98972.55;106112;1273;24219;-76
2022/06/04 03:22:58;;;;;;;24.60;12.00;;;;;;;16.45;55.50;98975.33;106123;1273;22532;-78
2022/06/04 03:25:30;;;;;;;17.30;10.00;;;;;;;16.39;55.46;98981.04;105883;1275;26527;-76
2022/06/04 03:28:01;;;;;;;19.20;9.80;;;;;;;16.43;55.57;98984.05;106090;1273;22761;-75
2022/06/04 03:30:28;;;;;;;18.20;9.20;;;;;;;16.49;55.65;98990.04;105876;1273;22639;-78
2022/06/04 03:32:55;;;;;;;15.60;9.00;;;;;;;16.56;55.73;98990.55;105893;1273;24262;-76
2022/06/04 03:35:25;;;;;;;20.20;11.80;;;;;;;16.61;55.79;99003.18;105893;1274;22712;-77
2022/06/04 03:37:52;;;;;;;17.70;12.20;;;;;;;16.55;55.76;99027.21;105843;1274;22850;-84
2022/06/04 03:40:30;;;;;;;17.90;9.00;;;;;;;16.41;55.85;99041.73;105840;1275;23362;-78
2022/06/04 03:42:57;;;;;;;17.30;9.50;;;;;;;16.39;56.20;99036.86;105938;1274;25353;-78
2022/06/04 03:45:44;;;;;;;17.00;10.20;;;;;;;16.43;56.30;99033.60;106113;1273;22531;-75
2022/06/04 03:48:11;;;;;;;10.60;4.70;;;;;;;16.48;56.48;99035.46;106255;1274;22619;-77
2022/06/04 03:50:39;;;;;;;10.30;4.10;;;;;;;16.57;56.59;99042.70;105884;1273;22619;-79
2022/06/04 03:53:08;;;;;;;8.40;3.90;;;;;;;16.76;56.67;99046.80;105972;1273;25310;-76
2022/06/04 03:55:35;;;;;;;9.30;3.90;;;;;;;16.93;56.54;99047.27;105884;1274;22612;-81
2022/06/04 03:58:03;;;;;;;7.50;3.70;;;;;;;17.08;56.43;99047.47;105849;1273;22856;-79
2022/06/04 04:00:32;;;;;;;7.70;3.80;;;;;;;17.21;56.42;99047.78;106121;1273;22531;-82
2022/06/04 04:03:20;;;;;;;9.10;3.70;;;;;;;17.30;56.39;99054.97;105935;1273;25238;-77
2022/06/04 04:06:11;;;;;;;10.10;4.40;;;;;;;17.40;56.45;99063.46;106389;1273;22594;-83
2022/06/04 04:08:42;;;;;;;9.80;4.30;;;;;;;17.46;56.47;99074.39;106151;1273;24357;-78
2022/06/04 04:11:13;;;;;;;10.70;5.30;;;;;;;17.48;56.66;99087.06;105994;1273;22621;-84
2022/06/04 04:13:43;;;;;;;11.00;5.40;;;;;;;17.35;56.53;99094.52;106117;1273;22576;-77
2022/06/04 04:16:12;;;;;;;11.00;4.90;;;;;;;17.22;56.71;99092.06;105899;1273;22553;-77
2022/06/04 04:18:45;;;;;;;7.90;4.20;;;;;;;17.15;56.90;99092.41;105944;1273;22832;-82
2022/06/04 04:21:36;;;;;;;9.00;4.50;;;;;;;17.04;57.17;99093.30;105822;1276;22629;-81
2022/06/04 04:24:09;;;;;;;9.00;5.10;;;;;;;16.94;57.40;99094.27;106332;1273;22557;-83
2022/06/04 04:26:42;;;;;;;10.70;4.80;;;;;;;16.89;57.62;99092.61;106334;1273;22551;-85
2022/06/04 04:29:23;;;;;;;;;;;;;;;;;;;;;
2022/06/04 04:31:51;;;;;;;9.30;5.30;;;;;;;16.69;57.70;99091.27;105947;1274;24200;-81
2022/06/04 04:34:21;;;;;;;8.80;4.40;;;;;;;16.63;57.76;99090.05;106011;1274;22560;-84
2022/06/04 04:36:51;;;;;;;8.90;4.90;;;;;;;16.52;57.89;99091.02;105859;1273;22624;-82
2022/06/04 04:39:21;;;;;;;11.60;4.50;;;;;;;16.42;58.13;99091.96;105894;1274;24208;-79
2022/06/04 04:41:53;;;;;;;8.60;4.80;;;;;;;16.36;58.19;99086.75;105952;1274;22504;-84
2022/06/04 04:44:23;;;;;;;10.20;4.90;;;;;;;16.30;58.90;99088.38;105926;1277;24499;-81
2022/06/04 04:46:53;;;;;;;11.80;5.70;;;;;;;16.25;58.66;99089.25;105737;1274;25418;-82
2022/06/04 04:49:21;;;;;;;10.30;5.60;;;;;;;16.19;58.63;99084.44;105962;1273;25277;-79
2022/06/04 04:51:51;;;;;;;10.10;5.60;;;;;;;16.16;58.72;99083.86;105823;1273;22555;-85
2022/06/04 04:54:18;;;;;;;10.00;6.00;;;;;;;16.14;58.78;99081.84;105998;1273;25301;-80
2022/06/04 04:56:54;;;;;;;9.50;5.40;;;;;;;16.12;58.82;99081.17;105954;1273;22658;-83
2022/06/04 04:59:43;;;;;;;10.40;6.10;;;;;;;16.10;59.03;99085.50;105965;1273;22712;-81
2022/06/04 05:02:13;;;;;;;9.50;5.80;;;;;;;16.11;59.22;99086.96;106205;1273;25597;-84
2022/06/04 05:04:57;;;;;;;;;;;;;;;;;;;;;
2022/06/04 05:07:44;;;;;;;10.00;5.50;;;;;;;16.31;59.32;99082.37;106029;1273;25255;-81
2022/06/04 05:10:48;;;;;;;11.00;5.60;;;;;;;16.41;59.69;99079.25;106135;1273;22767;-80
2022/06/04 05:13:19;;;;;;;7.80;5.00;;;;;;;16.47;59.55;99081.17;105995;1274;24416;-86
2022/06/04 05:16:16;;;;;;;9.00;4.60;;;;;;;16.51;59.61;99079.75;105993;1273;24266;-86
2022/06/04 05:19:01;;;;;;;7.90;4.10;;;;;;;16.61;59.63;99079.89;106054;1274;24208;-85
2022/06/04 05:21:39;;;;;;;7.60;4.20;;;;;;;16.73;59.74;99086.10;106000;1274;24313;-83
2022/06/04 05:24:17;;;;;;;;;;;;;;;;;;;;;
2022/06/04 05:26:45;;;;;;;11.10;5.00;;;;;;;17.00;59.68;99085.63;106247;1273;22697;-84
2022/06/04 05:29:15;;;;;;;9.50;5.20;;;;;;;17.08;59.82;99092.27;105854;1274;315133;-83
2022/06/04 05:31:42;;;;;;;7.50;4.30;;;;;;;17.14;59.66;99088.73;105989;1274;24544;-83
2022/06/04 05:34:13;;;;;;;7.40;3.80;;;;;;;17.24;59.83;99091.90;106202;1273;22814;-81
2022/06/04 05:36:53;;;;;;;7.00;3.90;;;;;;;17.39;59.81;99093.11;106022;1273;22571;-80
2022/06/04 05:39:25;;;;;;;9.00;5.00;;;;;;;17.47;59.66;99096.20;105945;1273;26564;-83
2022/06/04 05:42:04;;;;;;;10.30;5.20;;;;;;;17.50;59.61;99095.39;105880;1273;22470;-81
2022/06/04 05:44:59;;;;;;;8.40;5.10;;;;;;;17.51;59.68;99092.91;106140;1273;22549;-86
2022/06/04 05:47:50;;;;;;;9.30;5.10;;;;;;;17.55;59.64;99087.84;105925;1273;25172;-84
2022/06/04 05:50:25;;;;;;;9.50;4.80;;;;;;;17.59;59.70;99091.59;106042;1274;24270;-84
2022/06/04 05:52:57;;;;;;;9.20;5.30;;;;;;;17.67;59.72;99095.45;106024;1273;22850;-82
2022/06/04 05:55:51;;;;;;;10.40;5.30;;;;;;;17.78;59.64;99091.55;106059;1273;24032;-82
2022/06/04 05:58:47;;;;;;;8.20;5.40;;;;;;;17.88;59.62;99085.66;105847;1273;24410;-82
2022/06/04 06:01:20;;;;;;;9.50;5.00;;;;;;;17.92;59.56;99092.39;105972;1274;25609;-82
2022/06/04 06:03:48;;;;;;;8.30;4.60;;;;;;;18.01;59.68;99085.85;105693;1275;22704;-81
2022/06/04 06:07:23;;;;;;;6.70;4.00;;;;;;;18.13;59.78;99090.28;105822;1273;22765;-84
2022/06/04 06:09:52;;;;;;;8.10;4.10;;;;;;;18.32;59.56;99090.42;106100;1273;24370;-82
2022/06/04 06:12:36;;;;;;;8.70;4.00;;;;;;;18.37;59.31;99089.95;106214;1273;22608;-84
2022/06/04 06:15:31;;;;;;;;;;;;;;;;;;;;;
2022/06/04 06:18:30;;;;;;;;;;;;;;;;;;;;;
2022/06/04 06:21:53;;;;;;;8.60;4.10;;;;;;;18.68;60.20;99088.29;106027;1274;22566;-85
2022/06/04 06:24:47;;;;;;;7.80;4.70;;;;;;;18.89;60.08;99087.72;105932;1276;22547;-83
2022/06/04 06:27:19;;;;;;;5.90;3.30;;;;;;;19.06;60.25;99092.22;105931;1275;25442;-82
2022/06/04 06:29:54;;;;;;;8.80;4.10;;;;;;;19.11;59.62;99092.64;105900;1274;23950;-82
2022/06/04 06:32:46;;;;;;;10.80;4.00;;;;;;;19.20;59.89;99098.63;105860;1274;25194;-84
2022/06/04 06:35:26;;;;;;;8.30;4.50;;;;;;;19.25;59.83;99107.91;106258;1274;25990;-82
2022/06/04 06:38:17;;;;;;;8.20;4.50;;;;;;;19.30;59.73;99110.06;105978;1274;23061;-82
2022/06/04 06:41:18;;;;;;;9.00;4.70;;;;;;;19.38;60.09;99111.67;106268;1274;24219;-83
2022/06/04 06:44:53;;;;;;;9.20;5.10;;;;;;;19.45;59.93;99108.64;105851;1276;22671;-82
2022/06/04 06:47:33;;;;;;;9.60;4.90;;;;;;;19.61;60.00;99104.67;105941;1274;22547;-83
2022/06/04 06:50:04;;;;;;;11.60;5.50;;;;;;;19.76;59.83;99105.51;106093;1276;21894;-84
2022/06/04 06:52:37;;;;;;;9.90;5.20;;;;;;;19.93;59.78;99106.13;105864;1276;22612;-85
2022/06/04 06:55:05;;;;;;;9.60;5.10;;;;;;;20.10;59.74;99106.77;105938;1274;22721;-81
2022/06/04 06:57:58;;;;;;;9.30;5.30;;;;;;;20.26;59.75;99110.63;105710;1275;22826;-85
2022/06/04 07:00:25;;;;;;;10.90;4.50;;;;;;;20.34;59.07;99114.40;105865;1276;22535;-82
2022/06/04 07:03:24;;;;;;;;;;;;;;;;;;;;;
2022/06/04 07:06:05;;;;;;;10.40;4.50;;;;;;;20.33;58.94;99115.40;105955;1274;22559;-83
2022/06/04 07:08:37;;;;;;;10.00;4.70;;;;;;;20.33;59.15;99119.33;105847;1275;22547;-82
2022/06/04 07:11:10;;;;;;;14.30;5.20;;;;;;;20.46;59.55;99116.81;105706;1276;22544;-82
2022/06/04 07:13:42;;;;;;;8.00;5.30;;;;;;;20.75;59.75;99114.44;105874;1276;22723;-86
2022/06/04 07:16:10;;;;;;;10.40;5.10;;;;;;;21.20;59.65;99112.40;105816;1276;24210;-82
2022/06/04 07:18:47;;;;;;;7.50;4.50;;;;;;;21.48;59.07;99116.91;105758;1278;24195;-85
2022/06/04 07:21:24;;;;;;;10.50;4.90;;;;;;;21.36;58.48;99116.75;105830;1278;24696;-82
2022/06/04 07:23:54;;;;;;;10.00;5.00;;;;;;;21.16;58.87;99120.86;105822;1278;22586;-83
2022/06/04 07:26:32;;;;;;;9.20;5.10;;;;;;;21.12;58.78;99116.70;106265;1276;25552;-80
2022/06/04 07:29:20;;;;;;;8.70;5.20;;;;;;;20.98;58.66;99110.38;105718;1276;24520;-84
2022/06/04 07:32:00;;;;;;;8.90;4.90;;;;;;;20.83;58.76;99104.70;105829;1274;24455;-84
2022/06/04 07:34:47;;;;;;;8.70;4.70;;;;;;;20.76;58.92;99107.07;105784;1276;22559;-81
2022/06/04 07:37:35;;;;;;;9.80;4.90;;;;;;;20.71;58.85;99101.04;105811;1275;22778;-85
2022/06/04 07:40:08;;;;;;;10.50;4.80;;;;;;;20.61;59.20;99095.85;105780;1277;22544;-82
2022/06/04 07:43:17;;;;;;;9.40;4.90;;;;;;;20.57;59.03;99098.07;105844;1276;22628;-82
2022/06/04 07:45:55;;;;;;;9.50;5.10;;;;;;;20.51;58.73;99103.46;105623;1276;22668;-82
2022/06/04 07:48:22;;;;;;;10.50;4.30;;;;;;;20.43;58.66;99107.20;105695;1276;22553;-82
2022/06/04 07:51:00;;;;;;;;;;;;;;;;;;;;;
2022/06/04 07:53:33;;;;;;;7.80;4.90;;;;;;;20.71;58.78;99110.40;105958;1274;25367;-81
2022/06/04 07:56:15;;;;;;;10.00;5.40;;;;;;;20.79;58.53;99109.37;105727;1276;24282;-81
2022/06/04 07:58:52;;;;;;;9.50;4.80;;;;;;;20.77;58.01;99111.13;105963;1276;22589;-82
2022/06/04 08:01:22;;;;;;;9.70;5.10;;;;;;;20.72;58.12;99108.80;105712;1278;25724;-81
2022/06/04 08:03:53;;;;;;;9.70;5.00;;;;;;;20.86;58.77;99116.53;106379;1274;25509;-82
2022/06/04 08:06:21;;;;;;;9.90;5.20;;;;;;;21.04;58.82;99119.98;106234;1274;23965;-80
2022/06/04 08:08:59;;;;;;;8.80;4.30;;;;;;;21.20;58.62;99119.83;105825;1276;22781;-84
2022/06/04 08:11:40;;;;;;;9.20;4.60;;;;;;;21.35;58.56;99122.43;105866;1274;23012;-83
2022/06/04 08:14:19;;;;;;;8.10;5.40;;;;;;;21.41;58.12;99120.91;105879;1274;22532;-85
2022/06/04 08:16:51;;;;;;;8.70;4.50;;;;;;;21.41;57.92;99124.17;105952;1274;23948;-82
2022/06/04 08:19:21;;;;;;;9.80;4.60;;;;;;;21.37;57.99;99121.09;105930;1276;22556;-83
2022/06/04 08:21:51;;;;;;;10.30;4.10;;;;;;;21.44;58.15;99120.51;106021;1274;22737;-82
2022/06/04 08:24:20;;;;;;;9.50;5.40;;;;;;;21.51;58.09;99113.91;105701;1275;22598;-80
2022/06/04 08:26:53;;;;;;;11.60;5.10;;;;;;;21.65;58.36;99114.34;105896;1276;22809;-82
2022/06/04 08:29:33;;;;;;;11.40;5.90;;;;;;;21.81;58.40;99118.80;105829;1275;22755;-80
2022/06/04 08:32:03;;;;;;;9.40;4.50;;;;;;;22.00;58.23;99120.06;105972;1275;25254;-80
2022/06/04 08:34:50;;;;;;;11.50;5.40;;;;;;;22.13;58.27;99112.75;105758;1275;22602;-81
2022/06/04 08:37:20;;;;;;;9.80;5.60;;;;;;;22.31;58.19;99115.75;105698;1275;25265;-86
2022/06/04 08:39:50;;;;;;;10.80;5.20;;;;;;;22.45;58.02;99121.75;105885;1274;22602;-84
2022/06/04 08:42:45;;;;;;;9.50;5.00;;;;;;;22.44;57.85;99120.86;105928;1276;22833;-80
2022/06/04 08:45:13;;;;;;;9.60;5.20;;;;;;;22.41;57.99;99121.76;105901;1276;25675;-84
2022/06/04 08:47:46;;;;;;;11.20;4.60;;;;;;;22.42;57.97;99124.49;105820;1274;24262;-84
2022/06/04 08:50:20;;;;;;;9.20;4.70;;;;;;;22.44;57.68;99132.56;105725;1275;25242;-80
2022/06/04 08:53:09;;;;;;;10.40;4.80;;;;;;;22.33;57.65;99139.71;105527;1274;22748;-80
2022/06/04 08:59:21;;;;;;;10.80;5.30;;;;;;;22.29;57.96;99149.27;105377;1282;24973;-82
2022/06/04 09:02:23;;;;;;;;;;;;;;;;;;;;;
2022/06/04 09:05:15;;;;;;;10.60;4.80;;;;;;;22.21;57.42;99148.71;105521;1282;23184;-86
2022/06/04 09:08:08;;;;;;;9.20;5.40;;;;;;;22.09;57.62;99149.25;105165;1282;22565;-82
2022/06/04 09:11:22;;;;;;;9.70;5.30;;;;;;;22.02;57.87;99152.80;105516;1282;22575;-82
2022/06/04 09:14:31;;;;;;;9.70;5.20;;;;;;;22.02;57.90;99155.91;105427;1284;22797;-83
2022/06/04 09:17:11;;;;;;;10.50;4.70;;;;;;;21.98;57.92;99156.72;104467;1288;24239;-83
2022/06/04 09:19:55;;;;;;;12.90;5.50;;;;;;;21.96;57.79;99156.50;104778;1288;24263;-83
2022/06/04 09:22:54;;;;;;;11.50;5.50;;;;;;;21.93;57.73;99159.67;104828;1288;24449;-80
2022/06/04 09:26:03;;;;;;;10.00;5.00;;;;;;;21.92;57.95;99160.03;104438;1288;25228;-84
2022/06/04 09:29:06;;;;;;;9.20;5.40;;;;;;;22.04;57.75;99169.30;104663;1288;22569;-86
2022/06/04 09:32:14;;;;;;;10.30;6.00;;;;;;;21.96;56.98;99169.30;104658;1288;25286;-82
2022/06/04 09:34:54;;;;;;;10.40;5.50;;;;;;;22.06;57.41;99165.92;104982;1285;24261;-84
2022/06/04 09:37:42;;;;;;;11.70;5.50;;;;;;;22.29;57.23;99178.64;105339;1284;22586;-83
2022/06/04 09:40:30;;;;;;;7.60;4.30;;;;;;;22.48;57.26;99180.70;105307;1284;25402;-80
2022/06/04 09:43:22;;;;;;;11.40;5.80;;;;;;;22.55;56.41;99180.40;105455;1284;22547;-80
2022/06/04 09:46:09;;;;;;;9.90;5.70;;;;;;;22.44;56.61;99177.36;105106;1284;22549;-80
2022/06/04 09:49:09;;;;;;;9.70;5.50;;;;;;;22.38;56.55;99180.48;105278;1284;22564;-80
2022/06/04 09:51:48;;;;;;;10.80;6.10;;;;;;;22.48;57.01;99177.46;105032;1284;22707;-80
2022/06/04 09:55:05;;;;;;;10.50;5.20;;;;;;;22.61;56.67;99178.91;105755;1275;25506;-79
2022/06/04 09:57:37;;;;;;;10.40;5.00;;;;;;;22.53;56.72;99183.38;105891;1275;25224;-81
2022/06/04 10:00:22;;;;;;;12.00;6.70;;;;;;;22.63;56.87;99184.89;105651;1276;24255;-80
2022/06/04 10:03:16;;;;;;;10.00;5.80;;;;;;;22.85;57.00;99181.50;105702;1275;23125;-83
2022/06/04 10:05:57;;;;;;;11.30;6.20;;;;;;;23.13;56.84;99187.20;105779;1274;25233;-79
2022/06/04 10:12:07;;;;;;;10.10;5.80;;;;;;;23.26;55.75;99192.98;105895;1276;22591;-79
2022/06/04 10:15:00;;;;;;;13.80;5.90;;;;;;;23.00;55.91;99193.77;105828;1275;22564;-82
2022/06/04 10:18:04;;;;;;;11.80;6.10;;;;;;;23.09;56.54;99195.63;105861;1274;22571;-80
2022/06/04 10:20:34;;;;;;;11.10;5.80;;;;;;;23.19;56.08;99198.45;105938;1273;22857;-81
2022/06/04 10:23:00;;;;;;;11.20;5.20;;;;;;;23.24;56.02;99202.41;105991;1273;22705;-82
2022/06/04 10:25:42;;;;;;;11.60;6.20;;;;;;;23.13;55.64;99203.39;105879;1274;22599;-80
2022/06/04 10:28:33;;;;;;;12.10;5.60;;;;;;;23.07;55.93;99203.38;105910;1274;23262;-86
2022/06/04 10:31:15;;;;;;;10.50;5.50;;;;;;;23.06;56.25;99203.27;106109;1273;25744;-76
2022/06/04 10:33:45;;;;;;;10.00;5.70;;;;;;;23.14;56.09;99208.17;106082;1274;23735;-80
2022/06/04 10:36:59;;;;;;;11.80;5.50;;;;;;;23.10;55.92;99210.98;105978;1273;25215;-81
2022/06/04 10:39:51;;;;;;;11.30;6.50;;;;;;;22.90;55.70;99206.55;105923;1274;22532;-80
2022/06/04 10:42:47;;;;;;;10.40;5.60;;;;;;;22.79;55.99;99206.88;105982;1273;22836;-78
2022/06/04 10:45:40;;;;;;;10.90;6.00;;;;;;;22.77;55.94;99212.10;105880;1273;22581;-74
2022/06/04 10:48:44;;;;;;;13.60;6.90;;;;;;;22.88;56.22;99214.16;106045;1273;22571;-83
2022/06/04 10:51:36;;;;;;;9.40;5.90;;;;;;;22.87;55.78;99218.79;106256;1273;22892;-82
2022/06/04 10:54:39;;;;;;;9.30;5.50;;;;;;;22.75;55.98;99218.95;106080;1273;22598;-84
2022/06/04 10:57:43;;;;;;;9.40;6.20;;;;;;;22.69;55.39;99224.70;106016;1273;24405;-86
2022/06/04 11:00:17;;;;;;;10.00;6.80;;;;;;;22.62;55.77;99225.35;106081;1273;22697;-85
2022/06/04 11:02:44;;;;;;;15.30;6.90;;;;;;;22.57;55.75;99225.17;105910;1274;22554;-84
2022/06/04 11:05:27;;;;;;;14.50;7.00;;;;;;;22.51;55.97;99224.78;105905;1274;22623;-85
2022/06/04 11:08:04;;;;;;;13.60;6.10;;;;;;;22.53;56.03;99224.74;105866;1273;25330;-80
2022/06/04 11:10:35;;;;;;;11.20;6.80;;;;;;;22.50;55.69;99222.80;106096;1273;22640;-84
2022/06/04 11:13:11;;;;;;;10.30;5.50;;;;;;;22.28;55.71;99223.23;105954;1274;24106;-84
2022/06/04 11:15:49;;;;;;;10.70;6.70;;;;;;;22.20;55.70;99222.90;106097;1273;22708;-78
2022/06/04 11:18:51;;;;;;;9.80;6.20;;;;;;;22.20;55.89;99224.21;106138;1273;25348;-79
2022/06/04 11:21:36;;;;;;;12.60;7.00;;;;;;;22.15;55.74;99226.55;105942;1274;22846;-81
2022/06/04 11:24:20;;;;;;;12.30;6.10;;;;;;;22.13;55.93;99225.98;106078;1273;22699;-82
2022/06/04 11:27:14;;;;;;;10.70;6.20;;;;;;;22.22;55.97;99229.48;105907;1273;22608;-79
2022/06/04 11:29:44;;;;;;;8.90;5.40;;;;;;;22.29;56.04;99233.98;106156;1273;22847;-85
2022/06/04 11:32:17;;;;;;;10.10;5.80;;;;;;;22.31;55.83;99233.89;106103;1273;26497;-84
2022/06/04 11:35:04;;;;;;;;;;;;;;;;;;;;;
2022/06/04 11:38:02;;;;;;;8.90;4.90;;;;;;;22.53;56.12;99233.67;106068;1273;22595;-83
2022/06/04 11:40:37;;;;;;;10.20;5.80;;;;;;;22.59;55.74;99232.88;105900;1274;23063;-80
2022/06/04 11:43:20;;;;;;;11.00;6.50;;;;;;;22.72;56.16;99226.23;105942;1274;22653;-80
2022/06/04 11:45:54;;;;;;;10.50;6.00;;;;;;;22.96;56.22;99224.71;106015;1273;22522;-77
2022/06/04 11:48:33;;;;;;;9.10;5.60;;;;;;;23.09;55.80;99225.42;105957;1274;22697;-85
2022/06/04 11:51:27;;;;;;;10.60;5.70;;;;;;;23.10;55.66;99226.61;105935;1273;25536;-85
2022/06/04 11:54:16;;;;;;;9.10;5.80;;;;;;;23.15;55.33;99229.05;105914;1274;22545;-82
2022/06/04 11:56:51;;;;;;;11.50;6.50;;;;;;;22.97;55.16;99226.61;106090;1273;25437;-79
2022/06/04 11:59:43;;;;;;;9.60;5.80;;;;;;;23.05;55.56;99221.71;106153;1273;22550;-82
2022/06/04 12:02:16;;;;;;;11.20;6.00;;;;;;;23.13;55.25;99218.60;106001;1274;22578;-84
2022/06/04 12:05:00;;;;;;;35.20;26.20;;;;;;;23.13;55.46;99215.01;106403;1273;24074;-79
2022/06/04 12:07:36;;;;;;;13.40;8.70;;;;;;;23.27;55.47;99217.12;105822;1275;25366;-78
2022/06/04 12:10:24;;;;;;;18.90;15.00;;;;;;;23.26;55.43;99225.16;105894;1274;22519;-83
2022/06/04 12:13:18;;;;;;;12.50;8.00;;;;;;;23.20;55.36;99227.36;105904;1274;22611;-78
2022/06/04 12:16:17;;;;;;;16.60;11.50;;;;;;;23.14;55.44;99230.27;105779;1276;24212;-80
2022/06/04 12:18:56;;;;;;;37.00;27.90;;;;;;;23.04;55.61;99233.14;105873;1276;25417;-78
2022/06/04 12:24:42;;;;;;;34.80;26.30;;;;;;;22.82;55.78;99234.83;106392;1273;24274;-77
2022/06/04 12:28:20;;;;;;;20.60;16.00;;;;;;;22.71;55.62;99236.55;105965;1273;25555;-78
2022/06/04 12:31:36;;;;;;;52.00;43.90;;;;;;;22.56;55.87;99234.13;105679;1279;22536;-79
2022/06/04 12:34:28;;;;;;;184.00;120.90;;;;;;;22.56;55.74;99232.86;105767;1278;22539;-83
2022/06/04 12:36:56;;;;;;;65.70;42.70;;;;;;;22.61;56.10;99235.05;105735;1276;25498;-76
2022/06/04 12:39:44;;;;;;;38.00;27.70;;;;;;;22.63;56.09;99238.64;105662;1276;25547;-76
2022/06/04 12:42:29;;;;;;;38.70;29.30;;;;;;;22.62;56.06;99239.76;105461;1276;25476;-79
2022/06/04 12:45:05;;;;;;;35.80;29.70;;;;;;;22.53;55.96;99243.75;105562;1281;22587;-79
2022/06/04 12:47:36;;;;;;;63.60;44.90;;;;;;;22.40;55.89;99247.91;105465;1279;24273;-85
2022/06/04 12:50:27;;;;;;;28.00;22.20;;;;;;;22.34;55.89;99254.38;105714;1279;22849;-84
2022/06/04 12:53:02;;;;;;;42.60;29.30;;;;;;;22.23;56.17;99257.48;105714;1279;22562;-83
2022/06/04 12:55:40;;;;;;;81.70;47.00;;;;;;;22.14;56.06;99266.17;105726;1279;24274;-74
2022/06/04 12:58:26;;;;;;;94.30;55.30;;;;;;;21.99;56.00;99265.92;105581;1279;22568;-77
2022/06/04 13:01:05;;;;;;;31.50;19.60;;;;;;;21.79;56.17;99266.40;105737;1280;22596;-83
2022/06/04 13:03:36;;;;;;;21.00;14.60;;;;;;;21.69;56.46;99263.98;105853;1273;24213;-85
2022/06/04 13:06:15;;;;;;;17.30;12.60;;;;;;;21.67;56.38;99267.06;106132;1273;25258;-80
2022/06/04 13:09:02;;;;;;;15.20;10.70;;;;;;;21.52;56.18;99267.87;106131;1273;25238;-78
2022/06/04 13:12:06;;;;;;;19.40;12.60;;;;;;;21.36;56.35;99273.26;105896;1273;25302;-77
2022/06/04 13:15:05;;;;;;;;;;;;;;;;;;;;;
2022/06/04 13:17:42;;;;;;;18.90;14.60;;;;;;;21.22;56.72;99270.95;105582;1281;22543;-83